createdAt,value
2023-03-06T00:00:24.788Z,96861.78
2023-03-06T00:02:54.992Z,96866.00
2023-03-06T00:05:23.862Z,96865.19
2023-03-06T00:07:52.363Z,96874.59
2023-03-06T00:10:23.561Z,96867.00
2023-03-06T00:12:53.006Z,96855.19
2023-03-06T00:15:21.551Z,96855.50
2023-03-06T00:17:49.994Z,96857.13
2023-03-06T00:20:20.729Z,96850.34
2023-03-06T00:22:49.782Z,96850.34
2023-03-06T00:25:20.935Z,96844.34
2023-03-06T00:27:50.111Z,96842.75
2023-03-06T00:30:21.472Z,96840.31
2023-03-06T00:32:50.509Z,96828.50
2023-03-06T00:35:20.607Z,96821.38
2023-03-06T00:37:49.339Z,96825.25
2023-03-06T00:40:20.273Z,96818.16
2023-03-06T00:42:49.043Z,96827.53
2023-03-06T00:45:17.520Z,96817.66
2023-03-06T00:47:46.618Z,96820.41
2023-03-06T00:50:16.538Z,96824.31
2023-03-06T00:52:46.275Z,96817.19
2023-03-06T00:55:14.640Z,96814.44
2023-03-06T00:57:43.103Z,96808.47
2023-03-06T01:00:14.222Z,96802.94
2023-03-06T01:02:43.218Z,96802.16
2023-03-06T01:05:14.387Z,96796.97
2023-03-06T01:07:42.924Z,96787.09
2023-03-06T01:10:13.674Z,96777.22
2023-03-06T01:12:42.603Z,96774.81
2023-03-06T01:15:13.647Z,96776.75
2023-03-06T01:17:42.146Z,96782.25
2023-03-06T01:20:14.243Z,96779.50
2023-03-06T01:22:43.672Z,96780.66
2023-03-06T01:25:13.728Z,96780.97
2023-03-06T01:27:42.165Z,96773.84
2023-03-06T01:30:13.520Z,96766.41
2023-03-06T01:32:42.058Z,96764.78
2023-03-06T01:35:11.383Z,96757.69
2023-03-06T01:37:40.667Z,96754.94
2023-03-06T01:40:11.706Z,96754.44
2023-03-06T01:42:41.574Z,96754.44
2023-03-06T01:45:49.776Z,96750.09
2023-03-06T01:48:21.393Z,96751.69
2023-03-06T01:50:50.709Z,96745.38
2023-03-06T01:53:20.242Z,96745.38
2023-03-06T01:55:48.855Z,96738.59
2023-03-06T01:58:19.131Z,96744.09
2023-03-06T02:00:47.673Z,96734.25
2023-03-06T02:03:22.376Z,96729.53
2023-03-06T02:05:50.972Z,96725.19
2023-03-06T02:08:22.729Z,96728.72
2023-03-06T02:10:59.768Z,96729.06
2023-03-06T02:13:28.282Z,96717.25
2023-03-06T02:15:57.323Z,96712.56
2023-03-06T02:18:27.667Z,96710.13
2023-03-06T02:20:58.955Z,96703.03
2023-03-06T02:23:34.629Z,96702.22
2023-03-06T02:26:05.638Z,96695.91
2023-03-06T02:28:34.255Z,96696.72
2023-03-06T02:31:02.860Z,96687.66
2023-03-06T02:33:31.380Z,96682.16
2023-03-06T02:36:02.533Z,96690.41
2023-03-06T02:38:36.075Z,96680.53
2023-03-06T02:41:09.085Z,96684.91
2023-03-06T02:43:39.903Z,96679.38
2023-03-06T02:46:08.886Z,96669.19
2023-03-06T02:48:37.617Z,96668.38
2023-03-06T02:51:06.408Z,96665.16
2023-03-06T02:53:34.792Z,96664.03
2023-03-06T02:56:03.262Z,96659.66
2023-03-06T02:58:33.141Z,96655.75
2023-03-06T03:01:01.689Z,96649.78
2023-03-06T03:03:33.063Z,96660.78
2023-03-06T03:06:02.069Z,96662.41
2023-03-06T03:08:34.319Z,96651.75
2023-03-06T03:11:05.408Z,96652.53
2023-03-06T03:13:41.563Z,96647.03
2023-03-06T03:16:16.272Z,96644.63
2023-03-06T03:18:47.711Z,96639.94
2023-03-06T03:21:18.488Z,96641.06
2023-03-06T03:23:48.772Z,96632.34
2023-03-06T03:26:19.572Z,96637.50
2023-03-06T03:29:18.740Z,96647.72
2023-03-06T03:31:47.268Z,96641.41
2023-03-06T03:34:16.095Z,96644.47
2023-03-06T03:36:45.311Z,96641.41
2023-03-06T03:39:14.973Z,96640.59
2023-03-06T03:41:44.378Z,96639.78
2023-03-06T03:44:14.241Z,96639.78
2023-03-06T03:46:44.143Z,96648.84
2023-03-06T03:49:17.895Z,96648.03
2023-03-06T03:51:46.439Z,96637.03
2023-03-06T03:54:15.112Z,96637.38
2023-03-06T03:56:46.932Z,96633.47
2023-03-06T03:59:21.455Z,96624.75
2023-03-06T04:02:04.720Z,96623.13
2023-03-06T04:04:37.369Z,96623.13
2023-03-06T04:07:06.229Z,96618.78
2023-03-06T04:09:34.731Z,96612.13
2023-03-06T04:12:03.648Z,96617.63
2023-03-06T04:14:32.996Z,96619.25
2023-03-06T04:17:03.065Z,96621.53
2023-03-06T04:19:31.582Z,96615.22
2023-03-06T04:22:02.281Z,96616.84
2023-03-06T04:24:33.217Z,96620.72
2023-03-06T04:27:02.306Z,96617.97
2023-03-06T04:29:30.675Z,96613.28
2023-03-06T04:31:59.121Z,96605.34
2023-03-06T04:34:29.406Z,96614.41
2023-03-06T04:36:58.655Z,96606.50
2023-03-06T04:39:27.532Z,96602.94
2023-03-06T04:41:56.503Z,96605.69
2023-03-06T04:44:25.258Z,96602.94
2023-03-06T04:46:53.729Z,96610.38
2023-03-06T04:49:22.113Z,96609.59
2023-03-06T04:51:51.868Z,96604.06
2023-03-06T04:54:20.269Z,96598.56
2023-03-06T04:56:48.636Z,96594.22
2023-03-06T04:59:17.029Z,96597.78
2023-03-06T05:01:45.474Z,96599.72
2023-03-06T05:04:13.865Z,96602.47
2023-03-06T05:06:42.259Z,96605.22
2023-03-06T05:09:11.983Z,96598.09
2023-03-06T05:11:40.353Z,96595.34
2023-03-06T05:14:08.811Z,96591.81
2023-03-06T05:16:38.546Z,96596.97
2023-03-06T05:19:07.030Z,96589.84
2023-03-06T05:21:35.409Z,96598.09
2023-03-06T05:24:03.906Z,96600.84
2023-03-06T05:26:34.814Z,96600.06
2023-03-06T05:29:03.206Z,96589.03
2023-03-06T05:31:31.706Z,96592.13
2023-03-06T05:34:00.723Z,96584.34
2023-03-06T05:36:29.145Z,96591.81
2023-03-06T05:38:57.636Z,96592.13
2023-03-06T05:41:26.103Z,96588.56
2023-03-06T05:43:56.885Z,96573.22
2023-03-06T05:46:25.814Z,96586.63
2023-03-06T05:48:57.388Z,96585.16
2023-03-06T05:51:26.606Z,96579.94
2023-03-06T05:53:55.032Z,96586.50
2023-03-06T05:56:23.608Z,96592.94
2023-03-06T05:58:52.148Z,96582.88
2023-03-06T06:01:22.355Z,96576.84
2023-03-06T06:03:50.945Z,96587.97
2023-03-06T06:06:19.561Z,96584.09
2023-03-06T06:08:48.003Z,96583.94
2023-03-06T06:11:18.249Z,96590.13
2023-03-06T06:13:46.645Z,96594.84
2023-03-06T06:16:18.869Z,96590.94
2023-03-06T06:18:48.880Z,96587.84
2023-03-06T06:21:17.297Z,96595.56
2023-03-06T06:23:46.214Z,96593.06
2023-03-06T06:26:16.386Z,96595.16
2023-03-06T06:28:44.791Z,96591.06
2023-03-06T06:31:14.218Z,96593.47
2023-03-06T06:33:43.263Z,96588.09
2023-03-06T06:36:20.637Z,96595.22
2023-03-06T06:38:49.601Z,96594.06
2023-03-06T06:44:08.705Z,96589.38
2023-03-06T06:47:20.883Z,96586.59
2023-03-06T06:49:27.859Z,96596.00
2023-03-06T06:51:57.696Z,96586.47
2023-03-06T06:54:26.311Z,96584.88
2023-03-06T06:56:54.773Z,96588.78
2023-03-06T06:59:24.074Z,96591.19
2023-03-06T07:01:53.533Z,96595.09
2023-03-06T07:04:22.101Z,96597.50
2023-03-06T07:06:50.507Z,96604.63
2023-03-06T07:09:20.400Z,96613.34
2023-03-06T07:11:49.294Z,96600.72
2023-03-06T07:14:17.827Z,96605.88
2023-03-06T07:16:46.225Z,96603.94
2023-03-06T07:19:15.099Z,96611.06
2023-03-06T07:21:43.567Z,96609.09
2023-03-06T07:24:12.140Z,96605.22
2023-03-06T07:26:41.919Z,96603.59
2023-03-06T07:29:10.332Z,96601.66
2023-03-06T07:31:38.844Z,96606.34
2023-03-06T07:34:07.581Z,96614.28
2023-03-06T07:36:36.282Z,96612.66
2023-03-06T07:39:05.123Z,96618.63
2023-03-06T07:41:33.616Z,96614.28
2023-03-06T07:44:03.703Z,96620.59
2023-03-06T07:46:32.292Z,96618.19
2023-03-06T07:49:00.640Z,96621.41
2023-03-06T07:51:29.094Z,96618.63
2023-03-06T07:53:57.509Z,96615.88
2023-03-06T07:56:26.355Z,96630.13
2023-03-06T07:58:56.136Z,96630.13
2023-03-06T08:01:27.068Z,96638.38
2023-03-06T08:03:55.639Z,96639.53
2023-03-06T08:06:25.817Z,96637.91
2023-03-06T08:08:55.828Z,96637.13
2023-03-06T08:11:26.983Z,96641.00
2023-03-06T08:13:56.348Z,96635.38
2023-03-06T08:16:28.981Z,96643.84
2023-03-06T08:18:58.230Z,96639.00
2023-03-06T08:21:28.943Z,96646.78
2023-03-06T08:23:57.587Z,96643.44
2023-03-06T08:26:28.390Z,96637.94
2023-03-06T08:28:58.988Z,96640.22
2023-03-06T08:31:32.348Z,96640.53
2023-03-06T08:34:02.853Z,96636.19
2023-03-06T08:36:31.303Z,96638.47
2023-03-06T08:39:00.451Z,96639.59
2023-03-06T08:41:29.254Z,96640.28
2023-03-06T08:43:57.676Z,96644.63
2023-03-06T08:46:27.783Z,96643.84
2023-03-06T08:48:58.038Z,96644.63
2023-03-06T08:51:27.907Z,96651.75
2023-03-06T08:53:57.611Z,96644.63
2023-03-06T08:56:28.071Z,96651.28
2023-03-06T08:58:58.077Z,96659.53
2023-03-06T09:01:28.910Z,96654.03
2023-03-06T09:04:00.688Z,96650.81
2023-03-06T09:06:31.885Z,96654.84
2023-03-06T09:09:00.929Z,96652.44
2023-03-06T09:11:30.210Z,96652.09
2023-03-06T09:13:59.146Z,96650.16
2023-03-06T09:16:28.118Z,96648.53
2023-03-06T09:18:58.724Z,96656.13
2023-03-06T09:21:28.600Z,96651.28
2023-03-06T09:23:57.618Z,96649.69
2023-03-06T09:26:39.666Z,96648.53
2023-03-06T09:29:13.512Z,96654.84
2023-03-06T09:31:41.928Z,96652.44
2023-03-06T09:34:11.710Z,96647.72
2023-03-06T09:36:56.000Z,96648.53
2023-03-06T09:39:26.507Z,96646.91
2023-03-06T09:41:56.748Z,96642.22
2023-03-06T09:44:27.726Z,96633.16
2023-03-06T09:47:34.029Z,96646.91
2023-03-06T09:50:15.004Z,96631.53
2023-03-06T09:52:53.915Z,96641.41
2023-03-06T09:55:27.086Z,96638.66
2023-03-06T09:57:59.817Z,96634.31
2023-03-06T10:00:35.070Z,96646.13
2023-03-06T10:03:16.809Z,96638.19
2023-03-06T10:05:49.968Z,96644.16
2023-03-06T10:08:24.937Z,96641.41
2023-03-06T10:10:59.517Z,96630.41
2023-03-06T10:13:33.380Z,96630.41
2023-03-06T10:16:08.239Z,96638.53
2023-03-06T10:18:38.977Z,96629.94
2023-03-06T10:21:24.757Z,96631.06
2023-03-06T10:23:55.640Z,96628.78
2023-03-06T10:26:26.769Z,96626.03
2023-03-06T10:29:09.967Z,96624.44
2023-03-06T10:31:41.003Z,96627.19
2023-03-06T10:34:21.768Z,96621.69
2023-03-06T10:36:52.010Z,96631.53
2023-03-06T10:39:22.241Z,96630.75
2023-03-06T10:41:51.193Z,96622.81
2023-03-06T10:44:22.296Z,96624.28
2023-03-06T10:46:52.655Z,96639.34
2023-03-06T10:49:33.705Z,96633.81
2023-03-06T10:52:06.776Z,96641.28
2023-03-06T10:54:37.167Z,96639.66
2023-03-06T10:57:27.230Z,96643.56
2023-03-06T10:59:57.166Z,96645.50
2023-03-06T11:02:31.393Z,96652.16
2023-03-06T11:05:01.705Z,96651.69
2023-03-06T11:07:32.606Z,96649.72
2023-03-06T11:10:07.803Z,96650.53
2023-03-06T11:12:37.745Z,96646.19
2023-03-06T11:15:17.370Z,96652.34
2023-03-06T11:17:52.180Z,96645.44
2023-03-06T11:20:23.500Z,96647.91
2023-03-06T11:22:57.805Z,96651.31
2023-03-06T11:25:31.547Z,96650.84
2023-03-06T11:28:04.514Z,96649.91
2023-03-06T11:30:39.802Z,96647.16
2023-03-06T11:33:19.824Z,96641.16
2023-03-06T11:35:55.194Z,96632.91
2023-03-06T11:38:33.832Z,96638.41
2023-03-06T11:41:08.241Z,96641.16
2023-03-06T11:43:49.766Z,96631.31
2023-03-06T11:46:24.206Z,96635.66
2023-03-06T11:48:55.584Z,96634.06
2023-03-06T11:51:27.383Z,96633.72
2023-03-06T11:54:00.854Z,96627.09
2023-03-06T11:56:35.472Z,96629.16
2023-03-06T11:59:25.088Z,96624.47
2023-03-06T12:02:01.959Z,96620.59
2023-03-06T12:04:39.185Z,96617.63
2023-03-06T12:07:20.570Z,96607.44
2023-03-06T12:09:56.198Z,96607.09
2023-03-06T12:12:51.681Z,96602.06
2023-03-06T12:15:45.523Z,96596.56
2023-03-06T12:18:27.569Z,96599.00
2023-03-06T12:21:04.181Z,96594.28
2023-03-06T12:23:55.412Z,96588.78
2023-03-06T12:26:47.485Z,96586.84
2023-03-06T12:29:29.301Z,96579.41
2023-03-06T12:32:17.675Z,96584.56
2023-03-06T12:35:01.063Z,96584.91
2023-03-06T12:37:41.288Z,96576.16
2023-03-06T12:40:41.237Z,96575.84
2023-03-06T12:44:00.490Z,96573.88
2023-03-06T12:46:30.549Z,96578.25
2023-03-06T12:49:06.166Z,96571.59
2023-03-06T12:51:35.394Z,96570.81
2023-03-06T12:54:04.597Z,96571.59
2023-03-06T12:56:34.587Z,96571.59
2023-03-06T12:59:03.224Z,96568.53
2023-03-06T13:02:07.438Z,96568.53
2023-03-06T13:04:56.765Z,96569.31
2023-03-06T13:07:36.558Z,96562.22
2023-03-06T13:10:12.402Z,96557.38
2023-03-06T13:12:50.882Z,96554.16
2023-03-06T13:15:41.846Z,96552.06
2023-03-06T13:18:57.889Z,96547.72
2023-03-06T13:22:02.291Z,96544.50
2023-03-06T13:24:33.582Z,96542.88
2023-03-06T13:27:07.683Z,96546.78
2023-03-06T13:29:59.659Z,96542.41
2023-03-06T13:32:38.363Z,96540.81
2023-03-06T13:35:49.056Z,96541.16
2023-03-06T13:38:44.505Z,96544.69
2023-03-06T13:41:41.285Z,96540.34
2023-03-06T13:44:43.837Z,96538.72
2023-03-06T13:47:32.128Z,96537.94
2023-03-06T13:50:01.070Z,96536.31
2023-03-06T13:52:40.342Z,96545.38
2023-03-06T13:55:21.543Z,96539.41
2023-03-06T13:58:12.956Z,96544.91
2023-03-06T14:01:06.036Z,96539.41
2023-03-06T14:04:01.397Z,96538.59
2023-03-06T14:06:52.202Z,96538.59
2023-03-06T14:09:27.775Z,96536.97
2023-03-06T14:12:00.463Z,96537.78
2023-03-06T14:14:36.366Z,96535.84
2023-03-06T14:17:06.276Z,96539.88
2023-03-06T14:19:39.438Z,96533.50
2023-03-06T14:22:17.396Z,96527.44
2023-03-06T14:24:55.097Z,96523.69
2023-03-06T14:27:39.231Z,96518.78
2023-03-06T14:30:14.335Z,96516.16
2023-03-06T14:32:42.965Z,96506.75
2023-03-06T14:35:27.427Z,96518.25
2023-03-06T14:37:59.943Z,96529.72
2023-03-06T14:40:35.697Z,96531.31
2023-03-06T14:43:21.783Z,96532.13
2023-03-06T14:45:57.317Z,96526.75
2023-03-06T14:48:27.665Z,96524.34
2023-03-06T14:50:58.062Z,96523.78
2023-03-06T14:53:29.968Z,96523.13
2023-03-06T14:56:01.076Z,96517.28
2023-03-06T14:58:34.020Z,96525.66
2023-03-06T15:01:07.499Z,96517.19
2023-03-06T15:03:45.194Z,96523.63
2023-03-06T15:06:18.677Z,96524.09
2023-03-06T15:08:49.387Z,96517.44
2023-03-06T15:11:17.790Z,96519.03
2023-03-06T15:14:01.336Z,96516.75
2023-03-06T15:16:31.943Z,96525.47
2023-03-06T15:19:01.655Z,96528.03
2023-03-06T15:21:35.327Z,96526.56
2023-03-06T15:24:23.781Z,96521.06
2023-03-06T15:26:56.338Z,96515.06
2023-03-06T15:29:24.923Z,96515.84
2023-03-06T15:32:14.519Z,96522.31
2023-03-06T15:34:43.315Z,96510.16
2023-03-06T15:37:27.531Z,96507.06
2023-03-06T15:40:06.656Z,96507.41
2023-03-06T15:42:35.913Z,96502.69
2023-03-06T15:45:15.802Z,96501.22
2023-03-06T15:47:46.423Z,96494.22
2023-03-06T15:50:17.544Z,96493.19
2023-03-06T15:52:47.259Z,96507.44
2023-03-06T15:55:17.947Z,96495.25
2023-03-06T15:57:50.367Z,96500.78
2023-03-06T16:00:27.702Z,96497.09
2023-03-06T16:02:58.863Z,96497.09
2023-03-06T16:05:28.388Z,96498.25
2023-03-06T16:07:56.953Z,96493.19
2023-03-06T16:10:28.519Z,96502.72
2023-03-06T16:13:00.416Z,96501.34
2023-03-06T16:15:29.069Z,96496.66
2023-03-06T16:17:59.752Z,96505.50
2023-03-06T16:20:30.339Z,96505.97
2023-03-06T16:22:58.774Z,96507.09
2023-03-06T16:25:28.871Z,96511.81
2023-03-06T16:27:59.058Z,96500.31
2023-03-06T16:30:29.499Z,96509.50
2023-03-06T16:33:01.088Z,96512.03
2023-03-06T16:35:29.655Z,96520.44
2023-03-06T16:37:58.702Z,96512.97
2023-03-06T16:40:29.612Z,96518.09
2023-03-06T16:42:58.070Z,96521.56
2023-03-06T16:45:26.527Z,96519.28
2023-03-06T16:47:55.102Z,96525.59
2023-03-06T16:50:27.541Z,96526.03
2023-03-06T16:52:57.724Z,96526.50
2023-03-06T16:55:28.011Z,96528.91
2023-03-06T16:57:56.507Z,96532.47
2023-03-06T17:00:28.169Z,96530.63
2023-03-06T17:02:57.497Z,96533.84
2023-03-06T17:05:27.581Z,96537.88
2023-03-06T17:07:56.958Z,96537.53
2023-03-06T17:10:27.143Z,96531.53
2023-03-06T17:12:56.737Z,96541.88
2023-03-06T17:15:25.286Z,96550.63
2023-03-06T17:17:53.977Z,96551.31
2023-03-06T17:20:23.637Z,96554.88
2023-03-06T17:22:53.376Z,96556.94
2023-03-06T17:25:21.832Z,96551.06
2023-03-06T17:27:50.271Z,96555.66
2023-03-06T17:30:18.800Z,96557.50
2023-03-06T17:32:47.274Z,96564.28
2023-03-06T17:35:15.738Z,96566.22
2023-03-06T17:37:44.132Z,96573.34
2023-03-06T17:40:16.489Z,96570.13
2023-03-06T17:42:44.944Z,96576.34
2023-03-06T17:45:13.805Z,96582.53
2023-03-06T17:47:42.285Z,96581.63
2023-03-06T17:50:11.954Z,96583.47
2023-03-06T17:52:40.316Z,96581.75
2023-03-06T17:55:09.588Z,96587.13
2023-03-06T17:57:39.510Z,96585.06
2023-03-06T18:00:10.756Z,96585.75
2023-03-06T18:02:45.343Z,96592.72
2023-03-06T18:05:13.890Z,96594.22
2023-03-06T18:07:42.565Z,96592.94
2023-03-06T18:10:11.716Z,96598.81
2023-03-06T18:12:41.459Z,96596.38
2023-03-06T18:15:10.658Z,96589.59
2023-03-06T18:17:39.508Z,96586.38
2023-03-06T18:20:08.703Z,96584.31
2023-03-06T18:22:37.118Z,96586.25
2023-03-06T18:25:06.141Z,96581.09
2023-03-06T18:27:34.716Z,96593.25
2023-03-06T18:30:05.738Z,96586.94
2023-03-06T18:32:34.121Z,96588.56
2023-03-06T18:35:02.633Z,96597.63
2023-03-06T18:37:31.157Z,96600.38
2023-03-06T18:40:02.265Z,96594.28
2023-03-06T18:42:30.740Z,96597.75
2023-03-06T18:44:59.158Z,96595.75
2023-03-06T18:47:28.941Z,96596.97
2023-03-06T18:49:57.423Z,96598.31
2023-03-06T18:52:25.943Z,96592.53
2023-03-06T18:54:54.321Z,96594.09
2023-03-06T18:57:22.702Z,96605.63
2023-03-06T18:59:51.138Z,96599.53
2023-03-06T19:02:19.557Z,96594.69
2023-03-06T19:04:49.377Z,96604.06
2023-03-06T19:07:18.154Z,96597.78
2023-03-06T19:09:49.050Z,96598.72
2023-03-06T19:12:17.664Z,96601.59
2023-03-06T19:14:46.097Z,96597.38
2023-03-06T19:17:14.522Z,96598.66
2023-03-06T19:19:42.969Z,96597.50
2023-03-06T19:22:12.716Z,96597.50
2023-03-06T19:24:41.126Z,96592.81
2023-03-06T19:27:11.379Z,96593.63
2023-03-06T19:29:39.826Z,96590.19
2023-03-06T19:32:08.455Z,96587.59
2023-03-06T19:34:36.987Z,96588.06
2023-03-06T19:37:05.505Z,96586.91
2023-03-06T19:39:35.273Z,96581.75
2023-03-06T19:42:04.540Z,96586.44
2023-03-06T19:44:32.991Z,96587.91
2023-03-06T19:47:01.458Z,96594.09
2023-03-06T19:49:30.032Z,96596.38
2023-03-06T19:51:58.466Z,96596.72
2023-03-06T19:54:26.935Z,96591.06
2023-03-06T19:56:56.847Z,96592.22
2023-03-06T19:59:25.250Z,96589.13
2023-03-06T20:01:53.958Z,96582.63
2023-03-06T20:04:23.868Z,96575.63
2023-03-06T20:06:52.820Z,96583.56
2023-03-06T20:09:21.313Z,96579.66
2023-03-06T20:11:49.759Z,96580.47
2023-03-06T20:14:19.938Z,96583.56
2023-03-06T20:16:48.458Z,96581.94
2023-03-06T20:19:17.615Z,96582.63
2023-03-06T20:21:46.150Z,96580.19
2023-03-06T20:24:17.771Z,96586.50
2023-03-06T20:26:48.874Z,96586.50
2023-03-06T20:29:18.742Z,96586.66
2023-03-06T20:31:47.210Z,96582.88
2023-03-06T20:34:16.445Z,96587.25
2023-03-06T20:36:44.916Z,96582.88
2023-03-06T20:39:15.774Z,96574.63
2023-03-06T20:41:45.234Z,96587.91
2023-03-06T20:44:15.875Z,96583.56
2023-03-06T20:46:46.319Z,96586.78
2023-03-06T20:49:15.102Z,96577.97
2023-03-06T20:51:43.638Z,96577.56
2023-03-06T20:54:15.171Z,96581.41
2023-03-06T20:56:45.986Z,96573.72
2023-03-06T20:59:15.175Z,96577.75
2023-03-06T21:01:47.806Z,96578.69
2023-03-06T21:04:16.876Z,96572.38
2023-03-06T21:06:46.860Z,96573.19
2023-03-06T21:09:17.147Z,96582.59
2023-03-06T21:11:46.326Z,96568.81
2023-03-06T21:14:15.171Z,96567.22
2023-03-06T21:16:45.457Z,96575.47
2023-03-06T21:19:14.217Z,96568.34
2023-03-06T21:21:42.739Z,96556.41
2023-03-06T21:24:11.590Z,96554.31
2023-03-06T21:26:40.035Z,96549.97
2023-03-06T21:29:08.487Z,96552.25
2023-03-06T21:31:37.136Z,96551.78
2023-03-06T21:34:07.046Z,96556.81
2023-03-06T21:36:35.538Z,96559.09
2023-03-06T21:39:06.189Z,96561.41
2023-03-06T21:41:34.917Z,96550.25
2023-03-06T21:44:05.555Z,96553.34
2023-03-06T21:46:35.188Z,96541.88
2023-03-06T21:49:05.378Z,96539.44
2023-03-06T21:51:35.491Z,96528.78
2023-03-06T21:54:04.528Z,96528.09
2023-03-06T21:56:33.432Z,96527.44
2023-03-06T21:59:02.173Z,96528.38
2023-03-06T22:01:30.620Z,96534.34
2023-03-06T22:04:00.012Z,96525.41
2023-03-06T22:06:30.554Z,96524.72
2023-03-06T22:09:01.234Z,96519.22
2023-03-06T22:11:34.146Z,96518.06
2023-03-06T22:14:02.723Z,96515.31
2023-03-06T22:16:31.496Z,96510.63
2023-03-06T22:19:00.378Z,96519.69
2023-03-06T22:21:28.913Z,96506.72
2023-03-06T22:23:58.753Z,96509.81
2023-03-06T22:26:29.894Z,96506.59
2023-03-06T22:28:58.456Z,96506.47
2023-03-06T22:31:29.003Z,96499.22
2023-03-06T22:33:59.059Z,96506.22
2023-03-06T22:36:28.398Z,96500.25
2023-03-06T22:38:58.964Z,96511.59
2023-03-06T22:41:29.393Z,96508.38
2023-03-06T22:43:59.231Z,96508.72
2023-03-06T22:46:28.387Z,96509.06
2023-03-06T22:48:57.317Z,96503.06
2023-03-06T22:51:26.974Z,96503.41
2023-03-06T22:53:55.517Z,96495.50
2023-03-06T22:56:24.021Z,96502.16
2023-03-06T22:58:53.811Z,96496.19
2023-03-06T23:01:24.942Z,96495.72
2023-03-06T23:03:55.029Z,96489.75
2023-03-06T23:06:25.222Z,96495.25
2023-03-06T23:08:55.699Z,96490.41
2023-03-06T23:11:25.359Z,96497.88
2023-03-06T23:14:14.238Z,96492.69
2023-03-06T23:17:01.055Z,96497.72
2023-03-06T23:19:50.150Z,96493.38
2023-03-06T23:22:37.320Z,96500.00
2023-03-06T23:25:24.531Z,96494.84
2023-03-06T23:27:52.897Z,96484.19
2023-03-06T23:30:23.075Z,96479.81
2023-03-06T23:32:51.526Z,96479.81
2023-03-06T23:35:20.177Z,96478.22
2023-03-06T23:37:48.586Z,96478.22
2023-03-06T23:40:17.488Z,96479.34
2023-03-06T23:42:45.867Z,96469.50
2023-03-06T23:45:14.226Z,96470.63
2023-03-06T23:47:43.980Z,96476.13
2023-03-06T23:50:13.129Z,96470.97
2023-03-06T23:52:41.841Z,96477.28
2023-03-06T23:55:11.035Z,96479.56
2023-03-06T23:57:39.450Z,96465.00
